Time,TemperatureF,DewpointF,PressureIn,WindDirection,WindDirectionDegrees,WindSpeedMPH,WindSpeedGustMPH,Humidity,HourlyPrecipIn,Conditions,Clouds,dailyrainin,SoftwareType,DateUTC
2013-01-16 00:06:00,35.2,29.0,30.21,ENE,70,0.0,2.0,78,0.00,,,0.00,weatherlink.com 1.10,2013-01-16 05:06:00,
2013-01-16 00:21:00,35.4,29.0,30.21,ENE,73,0.0,2.0,76,0.00,,,0.00,weatherlink.com 1.10,2013-01-16 05:21:00,
2013-01-16 00:36:00,35.5,29.0,30.22,ENE,71,0.0,2.0,76,0.00,,,0.00,weatherlink.com 1.10,2013-01-16 05:36:00,
2013-01-16 00:51:00,35.6,29.0,30.23,NNE,23,0.0,1.0,76,0.00,,,0.00,weatherlink.com 1.10,2013-01-16 05:51:00,
2013-01-16 01:06:00,35.5,29.0,30.22,North,4,0.0,1.0,77,0.00,,,0.00,weatherlink.com 1.10,2013-01-16 06:06:00,
2013-01-16 01:21:00,35.7,29.0,30.21,ENE,68,0.0,2.0,76,0.00,,,0.00,weatherlink.com 1.10,2013-01-16 06:21:00,
2013-01-16 01:36:00,35.8,29.0,30.20,ESE,105,0.0,2.0,75,0.00,,,0.00,weatherlink.com 1.10,2013-01-16 06:36:00,
2013-01-16 01:51:00,35.7,29.0,30.21,ENE,62,0.0,1.0,75,0.00,,,0.00,weatherlink.com 1.10,2013-01-16 06:51:00,
2013-01-16 02:06:00,35.8,29.0,30.20,East,88,0.0,1.0,75,0.00,,,0.00,weatherlink.com 1.10,2013-01-16 07:06:00,
2013-01-16 02:21:00,35.8,29.0,30.20,East,87,0.0,0.0,76,0.00,,,0.00,weatherlink.com 1.10,2013-01-16 07:21:00,
2013-01-16 02:37:00,35.5,29.0,30.20,East,87,0.0,0.0,77,0.00,,,0.00,weatherlink.com 1.10,2013-01-16 07:37:00,
2013-01-16 02:51:00,35.2,29.0,30.19,East,87,0.0,0.0,79,0.00,,,0.00,weatherlink.com 1.10,2013-01-16 07:51:00,
2013-01-16 03:06:00,34.6,30.0,30.18,East,87,0.0,0.0,83,0.00,,,0.00,weatherlink.com 1.10,2013-01-16 08:06:00,
2013-01-16 03:21:00,33.9,31.0,30.18,East,87,0.0,0.0,87,0.00,,,0.00,weatherlink.com 1.10,2013-01-16 08:21:00,
2013-01-16 03:36:00,33.2,31.0,30.17,East,87,0.0,0.0,90,0.00,,,0.00,weatherlink.com 1.10,2013-01-16 08:36:00,
2013-01-16 03:51:00,32.9,31.0,30.14,ENE,72,0.0,2.0,92,0.00,,,0.00,weatherlink.com 1.10,2013-01-16 08:51:00,
2013-01-16 04:07:00,32.4,31.0,30.13,NNE,22,0.0,1.0,93,0.00,,,0.00,weatherlink.com 1.10,2013-01-16 09:07:00,
2013-01-16 04:22:00,32.3,31.0,30.13,NNE,15,1.0,1.0,94,0.00,,,0.00,weatherlink.com 1.10,2013-01-16 09:22:00,
2013-01-16 04:37:00,32.2,31.0,30.14,East,79,0.0,1.0,95,0.00,,,0.00,weatherlink.com 1.10,2013-01-16 09:37:00,
2013-01-16 04:52:00,32.1,31.0,30.14,East,79,0.0,0.0,95,0.00,,,0.00,weatherlink.com 1.10,2013-01-16 09:52:00,
2013-01-16 05:07:00,32.1,31.0,30.13,East,79,0.0,0.0,95,0.00,,,0.00,weatherlink.com 1.10,2013-01-16 10:07:00,
2013-01-16 05:22:00,32.1,31.0,30.13,ENE,70,0.0,0.0,96,0.00,,,0.00,weatherlink.com 1.10,2013-01-16 10:22:00,
2013-01-16 05:37:00,32.2,31.0,30.12,ENE,70,0.0,0.0,96,0.00,,,0.00,weatherlink.com 1.10,2013-01-16 10:37:00,
2013-01-16 05:52:00,32.2,31.0,30.11,ENE,71,0.0,0.0,96,0.00,,,0.00,weatherlink.com 1.10,2013-01-16 10:52:00,
2013-01-16 06:07:00,32.1,31.0,30.10,ENE,72,0.0,1.0,96,0.00,,,0.00,weatherlink.com 1.10,2013-01-16 11:07:00,
2013-01-16 06:22:00,32.1,31.0,30.09,ENE,70,0.0,0.0,96,0.00,,,0.00,weatherlink.com 1.10,2013-01-16 11:22:00,
2013-01-16 06:37:00,32.1,31.0,30.09,NE,40,0.0,1.0,96,0.00,,,0.00,weatherlink.com 1.10,2013-01-16 11:37:00,
2013-01-16 06:52:00,32.1,31.0,30.08,NE,45,0.0,1.0,96,0.00,,,0.00,weatherlink.com 1.10,2013-01-16 11:52:00,
2013-01-16 07:07:00,32.1,31.0,30.08,NE,45,0.0,0.0,97,0.00,,,0.00,weatherlink.com 1.10,2013-01-16 12:07:00,
2013-01-16 07:22:00,32.0,31.0,30.08,NE,46,0.0,0.0,97,0.00,,,0.00,weatherlink.com 1.10,2013-01-16 12:22:00,
2013-01-16 07:37:00,32.1,31.0,30.08,NE,45,0.0,0.0,97,0.00,,,0.00,weatherlink.com 1.10,2013-01-16 12:37:00,
2013-01-16 07:52:00,32.1,31.0,30.08,NE,45,0.0,0.0,97,0.00,,,0.00,weatherlink.com 1.10,2013-01-16 12:52:00,
2013-01-16 08:07:00,32.1,31.0,30.08,NE,45,0.0,0.0,97,0.00,,,0.00,weatherlink.com 1.10,2013-01-16 13:07:00,
2013-01-16 08:23:00,32.3,32.0,30.08,NE,46,0.0,0.0,97,0.00,,,0.00,weatherlink.com 1.10,2013-01-16 13:23:00,
2013-01-16 08:37:00,32.3,32.0,30.08,NE,45,0.0,1.0,97,0.00,,,0.00,weatherlink.com 1.10,2013-01-16 13:37:00,
2013-01-16 08:52:00,32.5,32.0,30.07,ENE,61,0.0,1.0,97,0.00,,,0.00,weatherlink.com 1.10,2013-01-16 13:52:00,
2013-01-16 09:07:00,32.6,32.0,30.06,ENE,75,0.0,1.0,97,0.00,,,0.00,weatherlink.com 1.10,2013-01-16 14:07:00,
2013-01-16 09:22:00,32.7,32.0,30.03,East,85,0.0,0.0,97,0.00,,,0.00,weatherlink.com 1.10,2013-01-16 14:22:00,
2013-01-16 09:37:00,32.7,32.0,30.01,ESE,108,0.0,0.0,97,0.00,,,0.00,weatherlink.com 1.10,2013-01-16 14:37:00,
2013-01-16 09:52:00,32.8,32.0,29.98,NNE,18,0.0,0.0,97,0.00,,,0.00,weatherlink.com 1.10,2013-01-16 14:52:00,
2013-01-16 10:07:00,32.8,32.0,29.97,NNE,25,0.0,0.0,97,0.00,,,0.00,weatherlink.com 1.10,2013-01-16 15:07:00,
2013-01-16 10:22:00,32.8,32.0,29.96,NW,319,0.0,0.0,97,0.00,,,0.00,weatherlink.com 1.10,2013-01-16 15:22:00,
2013-01-16 10:37:00,32.9,32.0,29.94,East,88,0.0,0.0,97,0.00,,,0.00,weatherlink.com 1.10,2013-01-16 15:37:00,
2013-01-16 10:52:00,33.1,32.0,29.92,East,80,0.0,2.0,97,0.00,,,0.00,weatherlink.com 1.10,2013-01-16 15:52:00,
2013-01-16 11:07:00,33.2,33.0,29.91,NE,43,0.0,2.0,97,0.00,,,0.00,weatherlink.com 1.10,2013-01-16 16:07:00,
2013-01-16 11:22:00,33.2,33.0,29.90,ENE,64,0.0,2.0,97,0.00,,,0.00,weatherlink.com 1.10,2013-01-16 16:22:00,
2013-01-16 11:37:00,33.3,33.0,29.92,NNE,16,0.0,1.0,97,0.00,,,0.00,weatherlink.com 1.10,2013-01-16 16:37:00,
2013-01-16 11:53:00,33.2,33.0,29.91,NE,40,0.0,2.0,97,0.00,,,0.00,weatherlink.com 1.10,2013-01-16 16:53:00,
2013-01-16 12:08:00,33.4,33.0,29.89,ENE,70,1.0,2.0,97,0.00,,,0.00,weatherlink.com 1.10,2013-01-16 17:08:00,
2013-01-16 12:23:00,33.5,33.0,29.90,NE,47,0.0,0.0,97,0.00,,,0.00,weatherlink.com 1.10,2013-01-16 17:23:00,
2013-01-16 12:38:00,33.5,33.0,29.90,NW,319,0.0,1.0,97,0.00,,,0.00,weatherlink.com 1.10,2013-01-16 17:38:00,
2013-01-16 12:53:00,33.6,33.0,29.89,North,1,0.0,1.0,97,0.00,,,0.00,weatherlink.com 1.10,2013-01-16 17:53:00,
2013-01-16 13:08:00,33.8,33.0,29.88,NNE,13,0.0,1.0,97,0.00,,,0.00,weatherlink.com 1.10,2013-01-16 18:08:00,
2013-01-16 13:23:00,33.8,33.0,29.89,NW,316,0.0,1.0,97,0.00,,,0.00,weatherlink.com 1.10,2013-01-16 18:23:00,
2013-01-16 13:38:00,33.8,33.0,29.86,NE,47,1.0,2.0,97,0.02,,,0.02,weatherlink.com 1.10,2013-01-16 18:38:00,
2013-01-16 13:53:00,33.8,33.0,29.85,NNE,18,0.0,2.0,97,0.04,,,0.04,weatherlink.com 1.10,2013-01-16 18:53:00,
2013-01-16 14:08:00,33.7,33.0,29.82,ENE,77,1.0,2.0,97,0.05,,,0.05,weatherlink.com 1.10,2013-01-16 19:08:00,
2013-01-16 14:23:00,33.6,33.0,29.78,East,84,0.0,2.0,97,0.06,,,0.06,weatherlink.com 1.10,2013-01-16 19:23:00,
2013-01-16 14:38:00,33.6,33.0,29.80,NNW,342,0.0,1.0,97,0.05,,,0.07,weatherlink.com 1.10,2013-01-16 19:38:00,
2013-01-16 14:53:00,33.5,33.0,29.79,NNE,18,1.0,3.0,97,0.04,,,0.08,weatherlink.com 1.10,2013-01-16 19:53:00,
2013-01-16 15:08:00,33.5,33.0,29.82,NW,319,0.0,2.0,97,0.04,,,0.09,weatherlink.com 1.10,2013-01-16 20:08:00,
2013-01-16 15:23:00,33.5,33.0,29.80,North,352,0.0,1.0,97,0.04,,,0.10,weatherlink.com 1.10,2013-01-16 20:23:00,
2013-01-16 15:38:00,33.4,33.0,29.82,WNW,301,0.0,3.0,97,0.04,,,0.11,weatherlink.com 1.10,2013-01-16 20:38:00,
2013-01-16 15:53:00,33.4,33.0,29.82,NW,324,0.0,1.0,97,0.04,,,0.12,weatherlink.com 1.10,2013-01-16 20:53:00,
2013-01-16 16:08:00,33.4,33.0,29.81,ENE,59,0.0,1.0,97,0.03,,,0.13,weatherlink.com 1.10,2013-01-16 21:08:00,
2013-01-16 16:23:00,33.3,33.0,29.83,NE,44,2.0,3.0,97,0.03,,,0.14,weatherlink.com 1.10,2013-01-16 21:23:00,
2013-01-16 16:38:00,33.3,33.0,29.84,WSW,238,0.0,1.0,97,0.03,,,0.14,weatherlink.com 1.10,2013-01-16 21:38:00,
2013-01-16 16:53:00,33.2,33.0,29.84,WNW,285,0.0,1.0,97,0.03,,,0.15,weatherlink.com 1.10,2013-01-16 21:53:00,
2013-01-16 17:08:00,33.2,33.0,29.84,West,259,0.0,1.0,97,0.03,,,0.16,weatherlink.com 1.10,2013-01-16 22:08:00,
2013-01-16 17:23:00,33.1,32.0,29.85,West,260,1.0,1.0,97,0.02,,,0.16,weatherlink.com 1.10,2013-01-16 22:23:00,
2013-01-16 17:38:00,33.1,33.0,29.84,NW,326,0.0,1.0,98,0.03,,,0.17,weatherlink.com 1.10,2013-01-16 22:38:00,
2013-01-16 17:53:00,33.1,33.0,29.84,West,263,0.0,1.0,98,0.02,,,0.17,weatherlink.com 1.10,2013-01-16 22:53:00,
2013-01-16 18:08:00,33.0,33.0,29.84,WNW,284,0.0,1.0,98,0.02,,,0.18,weatherlink.com 1.10,2013-01-16 23:08:00,
2013-01-16 18:23:00,32.9,32.0,29.84,WSW,253,0.0,1.0,98,0.02,,,0.18,weatherlink.com 1.10,2013-01-16 23:23:00,
2013-01-16 18:38:00,32.9,32.0,29.83,WSW,257,0.0,1.0,98,0.02,,,0.19,weatherlink.com 1.10,2013-01-16 23:38:00,
2013-01-16 18:53:00,32.9,32.0,29.85,WSW,248,1.0,2.0,98,0.02,,,0.19,weatherlink.com 1.10,2013-01-16 23:53:00,
2013-01-16 19:08:00,32.8,32.0,29.84,SW,217,0.0,2.0,98,0.02,,,0.20,weatherlink.com 1.10,2013-01-17 00:08:00,
2013-01-16 19:23:00,32.8,32.0,29.84,WSW,245,0.0,1.0,98,0.02,,,0.20,weatherlink.com 1.10,2013-01-17 00:23:00,
2013-01-16 19:38:00,32.8,32.0,29.84,WSW,242,0.0,1.0,98,0.01,,,0.20,weatherlink.com 1.10,2013-01-17 00:38:00,
2013-01-16 19:53:00,32.7,32.0,29.83,WSW,237,0.0,1.0,98,0.02,,,0.21,weatherlink.com 1.10,2013-01-17 00:53:00,
2013-01-16 20:08:00,32.7,32.0,29.83,WSW,258,0.0,1.0,98,0.01,,,0.21,weatherlink.com 1.10,2013-01-17 01:08:00,
2013-01-16 20:23:00,32.8,32.0,29.83,SW,236,0.0,2.0,98,0.02,,,0.22,weatherlink.com 1.10,2013-01-17 01:23:00,
2013-01-16 20:38:00,32.8,32.0,29.84,WSW,253,0.0,1.0,98,0.02,,,0.22,weatherlink.com 1.10,2013-01-17 01:38:00,
2013-01-16 20:53:00,32.9,32.0,29.84,WSW,245,1.0,2.0,98,0.01,,,0.22,weatherlink.com 1.10,2013-01-17 01:53:00,
2013-01-16 21:08:00,32.8,32.0,29.84,WSW,249,0.0,1.0,98,0.02,,,0.23,weatherlink.com 1.10,2013-01-17 02:08:00,
2013-01-16 21:23:00,32.8,32.0,29.85,WSW,250,1.0,1.0,98,0.01,,,0.23,weatherlink.com 1.10,2013-01-17 02:23:00,
2013-01-16 21:38:00,32.8,32.0,29.85,SW,228,0.0,2.0,98,0.01,,,0.23,weatherlink.com 1.10,2013-01-17 02:38:00,
2013-01-16 21:53:00,32.9,32.0,29.84,SSW,203,1.0,2.0,98,0.02,,,0.24,weatherlink.com 1.10,2013-01-17 02:53:00,
2013-01-16 22:08:00,32.9,32.0,29.84,SSW,212,1.0,4.0,98,0.01,,,0.24,weatherlink.com 1.10,2013-01-17 03:08:00,
2013-01-16 22:23:00,33.0,33.0,29.84,WSW,242,0.0,2.0,98,0.01,,,0.24,weatherlink.com 1.10,2013-01-17 03:23:00,
2013-01-16 22:38:00,33.1,33.0,29.84,SW,235,0.0,1.0,98,0.02,,,0.25,weatherlink.com 1.10,2013-01-17 03:38:00,
2013-01-16 22:53:00,33.2,33.0,29.84,SW,222,1.0,2.0,98,0.01,,,0.25,weatherlink.com 1.10,2013-01-17 03:53:00,
2013-01-16 23:08:00,33.5,33.0,29.84,South,176,1.0,2.0,98,0.01,,,0.25,weatherlink.com 1.10,2013-01-17 04:08:00,
2013-01-16 23:23:00,33.7,33.0,29.84,WNW,285,1.0,3.0,98,0.02,,,0.26,weatherlink.com 1.10,2013-01-17 04:23:00,
2013-01-16 23:38:00,33.8,33.0,29.85,West,260,1.0,2.0,98,0.01,,,0.26,weatherlink.com 1.10,2013-01-17 04:38:00,
2013-01-16 23:53:00,33.9,33.0,29.85,WSW,255,3.0,4.0,98,0.02,,,0.27,weatherlink.com 1.10,2013-01-17 04:53:00,